Millston, WI (54643)

8:36 PM CST on December 26, 2014 (GMT -0600)
Black River Falls Area | Change Station
CLOSE
Current Station
Airport
Location: Black River Falls,
Elevation: 837 ft
Nearby Weather Stations
Active Advisory: Winter Weather Advisory

Elev 837 ft 44.25 °N, 90.86 °W | Updated 21 minutes ago

Overcast
Overcast
36 °F
Feels Like 36 °F
N
0
Wind Variable Wind from North

Today
High -- | Low -- °F
--% Chance of Precip.
Yesterday
High -- | Low -- °F
Precip. -- in
7:36 AM 4:29 PM
Waxing Crescent, 31% visible
Pressure 30.02 in
Visibility 5.0 miles
Clouds Overcast 1200 ft
Dew Point 32 °F
Humidity 86%
Rainfall 0.00 in
Snow Depth Not available.
UV 0 out of 12
Pollen .10 out of 12
Air Quality Not available.
Flu Activity Not available.
METAR KBCK 270215Z AUTO 00000KT 5SM BR OVC012 02/00 A3002 RMK AO2 T00201001

More Conditions Fewer Conditions

Pressure 30.02 in
Visibility 5.0 miles
Clouds Overcast 1200 ft
Dew Point 32 °F
Humidity 86%
Rainfall 0.00 in
Snow Depth Not available.
UV 0 out of 12
Pollen .10 out of 12
Air Quality Not available.
Flu Activity Not available.
METAR KBCK 270215Z AUTO 00000KT 5SM BR OVC012 02/00 A3002 RMK AO2 T00201001

More Conditions Fewer Conditions

Nowcast | as of 6:46 PM CST on December 26, 2014

A quick moving band of snow will move northeast across the region through 9 PM. Visibilities could briefly drop to 1 mile for 15 to 20 minutes...with accumulations up to a couple tenths of an inch. The snow will not last much more than 1/2 hour at any given location. More...longer lasting snow is expected later tonight.

×

10-Day Weather Forecast

Almanac

Astronomy

Dec. 26, 2014 Rise Set
Actual Time
Civil Twilight
Nautical Twilight
Astronomical Twilight
Moon
Length of Visible Light
Length of Day
Tomorrow will be .
, % of the Moon is Illuminated

Today's Extremes

State Highs State Lows

Community

WunderPhotos

Upload Photos

1,780,815 photos uploaded!

WunderBlogs® & News

Nearby

Air Quality

  Air Quality AQ Index Pollutant
Not available.

Snow Depth

Station Depth Elevation

Earthquake Activity

City Distance Mag. Time & Date
Minimum magnitude displayed is 2.5.

Coastal Water Temperatures

Place Temperature

Nearby Weather Stations